sensor_id;sensor_type;location;lat;lon;timestamp;temperature;humidity
9861;DHT22;4969;52.304;4.968;2024-02-04T00:02:11;11.20;85.97
9861;DHT22;4969;52.304;4.968;2024-02-04T00:04:39;11.00;85.25
9861;DHT22;4969;52.304;4.968;2024-02-04T00:07:06;10.92;85.71
9861;DHT22;4969;52.304;4.968;2024-02-04T00:09:32;10.72;85.77
9861;DHT22;4969;52.304;4.968;2024-02-04T00:11:59;10.93;86.34
9861;DHT22;4969;52.304;4.968;2024-02-04T00:14:28;11.00;86.31
9861;DHT22;4969;52.304;4.968;2024-02-04T00:16:55;10.85;86.05
9861;DHT22;4969;52.304;4.968;2024-02-04T00:19:23;11.34;86.05
9861;DHT22;4969;52.304;4.968;2024-02-04T00:21:49;11.55;84.85
9861;DHT22;4969;52.304;4.968;2024-02-04T00:24:16;11.36;84.54
9861;DHT22;4969;52.304;4.968;2024-02-04T00:26:44;10.83;85.24
9861;DHT22;4969;52.304;4.968;2024-02-04T00:29:10;10.86;86.26
9861;DHT22;4969;52.304;4.968;2024-02-04T00:31:37;11.14;85.60
9861;DHT22;4969;52.304;4.968;2024-02-04T00:34:03;11.00;85.45
9861;DHT22;4969;52.304;4.968;2024-02-04T00:36:31;10.89;85.64
9861;DHT22;4969;52.304;4.968;2024-02-04T00:38:58;11.10;87.17
9861;DHT22;4969;52.304;4.968;2024-02-04T00:41:25;11.30;86.14
9861;DHT22;4969;52.304;4.968;2024-02-04T00:43:52;11.16;84.82
9861;DHT22;4969;52.304;4.968;2024-02-04T00:46:19;11.07;85.29
9861;DHT22;4969;52.304;4.968;2024-02-04T00:48:45;11.36;86.27
9861;DHT22;4969;52.304;4.968;2024-02-04T00:51:12;11.10;84.22
9861;DHT22;4969;52.304;4.968;2024-02-04T00:53:40;10.75;85.78
9861;DHT22;4969;52.304;4.968;2024-02-04T00:56:07;11.14;86.05
9861;DHT22;4969;52.304;4.968;2024-02-04T00:58:35;10.83;84.35
9861;DHT22;4969;52.304;4.968;2024-02-04T01:01:01;10.89;85.00
9861;DHT22;4969;52.304;4.968;2024-02-04T01:03:28;11.09;84.25
9861;DHT22;4969;52.304;4.968;2024-02-04T01:05:54;10.75;84.06
9861;DHT22;4969;52.304;4.968;2024-02-04T01:08:22;10.61;83.72
9861;DHT22;4969;52.304;4.968;2024-02-04T01:10:50;11.07;85.17
9861;DHT22;4969;52.304;4.968;2024-02-04T01:13:16;10.67;82.50
9861;DHT22;4969;52.304;4.968;2024-02-04T01:15:43;10.78;83.76
9861;DHT22;4969;52.304;4.968;2024-02-04T01:18:10;10.71;83.09
9861;DHT22;4969;52.304;4.968;2024-02-04T01:20:36;10.72;83.61
9861;DHT22;4969;52.304;4.968;2024-02-04T01:23:03;10.78;83.23
9861;DHT22;4969;52.304;4.968;2024-02-04T01:25:29;10.68;82.89
9861;DHT22;4969;52.304;4.968;2024-02-04T01:27:57;11.09;82.74
9861;DHT22;4969;52.304;4.968;2024-02-04T01:30:24;10.60;82.18
9861;DHT22;4969;52.304;4.968;2024-02-04T01:32:51;10.64;83.24
9861;DHT22;4969;52.304;4.968;2024-02-04T01:35:17;10.79;82.19
9861;DHT22;4969;52.304;4.968;2024-02-04T01:37:44;10.78;82.42
9861;DHT22;4969;52.304;4.968;2024-02-04T01:40:13;10.72;82.71
9861;DHT22;4969;52.304;4.968;2024-02-04T01:42:40;10.45;82.43
9861;DHT22;4969;52.304;4.968;2024-02-04T01:45:09;10.68;83.62
9861;DHT22;4969;52.304;4.968;2024-02-04T01:47:35;11.28;82.83
9861;DHT22;4969;52.304;4.968;2024-02-04T01:50:03;11.57;80.61
9861;DHT22;4969;52.304;4.968;2024-02-04T01:52:30;11.40;79.86
9861;DHT22;4969;52.304;4.968;2024-02-04T01:54:58;11.41;80.54
9861;DHT22;4969;52.304;4.968;2024-02-04T01:57:25;10.79;80.38
9861;DHT22;4969;52.304;4.968;2024-02-04T01:59:52;11.28;82.67
9861;DHT22;4969;52.304;4.968;2024-02-04T02:02:21;10.71;79.78
9861;DHT22;4969;52.304;4.968;2024-02-04T02:04:48;10.75;80.69
9861;DHT22;4969;52.304;4.968;2024-02-04T02:07:15;10.74;80.10
9861;DHT22;4969;52.304;4.968;2024-02-04T02:09:43;10.92;80.69
9861;DHT22;4969;52.304;4.968;2024-02-04T02:12:12;10.75;79.56
9861;DHT22;4969;52.304;4.968;2024-02-04T02:14:42;11.06;79.94
9861;DHT22;4969;52.304;4.968;2024-02-04T02:17:11;10.88;79.50
9861;DHT22;4969;52.304;4.968;2024-02-04T02:19:48;11.10;80.83
9861;DHT22;4969;52.304;4.968;2024-02-04T02:22:25;11.06;79.10
9861;DHT22;4969;52.304;4.968;2024-02-04T02:24:56;10.93;80.00
9861;DHT22;4969;52.304;4.968;2024-02-04T02:27:22;11.20;80.75
9861;DHT22;4969;52.304;4.968;2024-02-04T02:29:49;11.14;81.23
9861;DHT22;4969;52.304;4.968;2024-02-04T02:32:16;11.23;80.57
9861;DHT22;4969;52.304;4.968;2024-02-04T02:34:42;10.89;79.29
9861;DHT22;4969;52.304;4.968;2024-02-04T02:37:16;11.23;79.35
9861;DHT22;4969;52.304;4.968;2024-02-04T02:39:50;10.86;79.38
9861;DHT22;4969;52.304;4.968;2024-02-04T02:42:22;10.85;78.85
9861;DHT22;4969;52.304;4.968;2024-02-04T02:44:50;10.89;79.23
9861;DHT22;4969;52.304;4.968;2024-02-04T02:47:18;11.27;81.27
9861;DHT22;4969;52.304;4.968;2024-02-04T02:49:45;10.79;78.89
9861;DHT22;4969;52.304;4.968;2024-02-04T02:52:12;10.99;81.71
9861;DHT22;4969;52.304;4.968;2024-02-04T02:54:38;11.48;82.91
9861;DHT22;4969;52.304;4.968;2024-02-04T02:57:05;11.12;79.98
9861;DHT22;4969;52.304;4.968;2024-02-04T02:59:33;11.28;78.27
9861;DHT22;4969;52.304;4.968;2024-02-04T03:01:59;11.47;81.64
9861;DHT22;4969;52.304;4.968;2024-02-04T03:04:26;11.46;80.50
9861;DHT22;4969;52.304;4.968;2024-02-04T03:06:52;11.27;78.75
9861;DHT22;4969;52.304;4.968;2024-02-04T03:09:19;10.81;79.06
9861;DHT22;4969;52.304;4.968;2024-02-04T03:11:45;11.44;80.69
9861;DHT22;4969;52.304;4.968;2024-02-04T03:14:14;11.14;77.53
9861;DHT22;4969;52.304;4.968;2024-02-04T03:16:43;11.00;77.57
9861;DHT22;4969;52.304;4.968;2024-02-04T03:19:09;11.06;77.96
9861;DHT22;4969;52.304;4.968;2024-02-04T03:21:36;11.43;79.25
9861;DHT22;4969;52.304;4.968;2024-02-04T03:24:03;11.02;78.02
9861;DHT22;4969;52.304;4.968;2024-02-04T03:26:29;10.52;78.91
9861;DHT22;4969;52.304;4.968;2024-02-04T03:28:56;10.97;80.07
9861;DHT22;4969;52.304;4.968;2024-02-04T03:31:23;10.63;76.99
9861;DHT22;4969;52.304;4.968;2024-02-04T03:33:51;10.63;79.01
9861;DHT22;4969;52.304;4.968;2024-02-04T03:36:22;10.61;77.61
9861;DHT22;4969;52.304;4.968;2024-02-04T03:38:49;10.65;77.76
9861;DHT22;4969;52.304;4.968;2024-02-04T03:41:16;10.26;77.29
9861;DHT22;4969;52.304;4.968;2024-02-04T03:43:43;10.33;76.65
9861;DHT22;4969;52.304;4.968;2024-02-04T03:46:13;10.16;75.68
9861;DHT22;4969;52.304;4.968;2024-02-04T03:48:39;10.13;76.06
9861;DHT22;4969;52.304;4.968;2024-02-04T03:51:07;9.96;75.74
9861;DHT22;4969;52.304;4.968;2024-02-04T03:53:34;9.99;79.03
9861;DHT22;4969;52.304;4.968;2024-02-04T03:56:00;9.78;76.63
9861;DHT22;4969;52.304;4.968;2024-02-04T03:58:27;10.19;78.10
9861;DHT22;4969;52.304;4.968;2024-02-04T04:00:56;10.10;77.73
9861;DHT22;4969;52.304;4.968;2024-02-04T04:03:23;10.08;75.98
9861;DHT22;4969;52.304;4.968;2024-02-04T04:05:49;10.09;76.12
9861;DHT22;4969;52.304;4.968;2024-02-04T04:08:17;10.14;76.36
9861;DHT22;4969;52.304;4.968;2024-02-04T04:10:44;10.00;75.83
9861;DHT22;4969;52.304;4.968;2024-02-04T04:13:11;10.12;74.92
9861;DHT22;4969;52.304;4.968;2024-02-04T04:15:38;9.91;76.34
9861;DHT22;4969;52.304;4.968;2024-02-04T04:18:04;9.58;75.72
9861;DHT22;4969;52.304;4.968;2024-02-04T04:20:31;10.12;75.06
9861;DHT22;4969;52.304;4.968;2024-02-04T04:22:58;10.38;76.16
9861;DHT22;4969;52.304;4.968;2024-02-04T04:25:25;10.49;75.55
9861;DHT22;4969;52.304;4.968;2024-02-04T04:27:52;10.52;77.06
9861;DHT22;4969;52.304;4.968;2024-02-04T04:30:18;10.83;74.31
9861;DHT22;4969;52.304;4.968;2024-02-04T04:32:45;10.85;77.88
9861;DHT22;4969;52.304;4.968;2024-02-04T04:35:11;10.40;76.20
9861;DHT22;4969;52.304;4.968;2024-02-04T04:37:38;10.38;75.38
9861;DHT22;4969;52.304;4.968;2024-02-04T04:40:06;10.79;76.53
9861;DHT22;4969;52.304;4.968;2024-02-04T04:42:34;10.55;74.64
9861;DHT22;4969;52.304;4.968;2024-02-04T04:45:01;10.68;75.03
9861;DHT22;4969;52.304;4.968;2024-02-04T04:47:27;10.75;75.86
9861;DHT22;4969;52.304;4.968;2024-02-04T04:49:54;10.40;75.48
9861;DHT22;4969;52.304;4.968;2024-02-04T04:52:21;9.95;77.01
9861;DHT22;4969;52.304;4.968;2024-02-04T04:54:47;10.02;77.51
9861;DHT22;4969;52.304;4.968;2024-02-04T04:57:14;10.33;80.45
9861;DHT22;4969;52.304;4.968;2024-02-04T04:59:42;10.36;76.98
9861;DHT22;4969;52.304;4.968;2024-02-04T05:02:09;10.60;76.82
9861;DHT22;4969;52.304;4.968;2024-02-04T05:04:36;10.38;78.99
9861;DHT22;4969;52.304;4.968;2024-02-04T05:07:03;10.78;77.36
9861;DHT22;4969;52.304;4.968;2024-02-04T05:09:29;10.89;77.40
9861;DHT22;4969;52.304;4.968;2024-02-04T05:11:56;11.04;78.41
9861;DHT22;4969;52.304;4.968;2024-02-04T05:14:22;10.89;76.84
9861;DHT22;4969;52.304;4.968;2024-02-04T05:16:50;10.88;77.17
9861;DHT22;4969;52.304;4.968;2024-02-04T05:19:17;11.31;78.85
9861;DHT22;4969;52.304;4.968;2024-02-04T05:21:43;11.48;77.67
9861;DHT22;4969;52.304;4.968;2024-02-04T05:24:10;11.52;76.78
9861;DHT22;4969;52.304;4.968;2024-02-04T05:26:36;11.24;75.31
9861;DHT22;4969;52.304;4.968;2024-02-04T05:29:03;11.48;77.23
9861;DHT22;4969;52.304;4.968;2024-02-04T05:31:29;11.51;75.87
9861;DHT22;4969;52.304;4.968;2024-02-04T05:33:57;12.04;76.16
9861;DHT22;4969;52.304;4.968;2024-02-04T05:36:24;11.85;74.65
9861;DHT22;4969;52.304;4.968;2024-02-04T05:38:50;10.91;75.03
9861;DHT22;4969;52.304;4.968;2024-02-04T05:41:17;10.74;75.87
9861;DHT22;4969;52.304;4.968;2024-02-04T05:43:43;10.85;76.41
9861;DHT22;4969;52.304;4.968;2024-02-04T05:46:10;11.19;78.52
9861;DHT22;4969;52.304;4.968;2024-02-04T05:48:39;10.85;76.15
9861;DHT22;4969;52.304;4.968;2024-02-04T05:51:11;10.78;76.82
9861;DHT22;4969;52.304;4.968;2024-02-04T05:53:37;10.92;75.52
9861;DHT22;4969;52.304;4.968;2024-02-04T05:56:04;10.55;75.71
9861;DHT22;4969;52.304;4.968;2024-02-04T05:58:31;10.78;77.75
9861;DHT22;4969;52.304;4.968;2024-02-04T06:00:57;11.17;77.93
9861;DHT22;4969;52.304;4.968;2024-02-04T06:03:24;11.36;76.08
9861;DHT22;4969;52.304;4.968;2024-02-04T06:05:50;11.51;75.77
9861;DHT22;4969;52.304;4.968;2024-02-04T06:08:18;11.36;75.20
9861;DHT22;4969;52.304;4.968;2024-02-04T06:10:45;11.52;76.35
9861;DHT22;4969;52.304;4.968;2024-02-04T06:13:11;11.37;75.68
9861;DHT22;4969;52.304;4.968;2024-02-04T06:15:38;11.50;76.86
9861;DHT22;4969;52.304;4.968;2024-02-04T06:18:04;11.47;77.47
9861;DHT22;4969;52.304;4.968;2024-02-04T06:20:31;11.27;75.91
9861;DHT22;4969;52.304;4.968;2024-02-04T06:22:58;11.07;76.50
9861;DHT22;4969;52.304;4.968;2024-02-04T06:25:26;11.09;77.63
9861;DHT22;4969;52.304;4.968;2024-02-04T06:27:52;10.95;78.83
9861;DHT22;4969;52.304;4.968;2024-02-04T06:30:19;11.02;77.74
9861;DHT22;4969;52.304;4.968;2024-02-04T06:32:47;10.76;77.62
9861;DHT22;4969;52.304;4.968;2024-02-04T06:35:14;11.30;80.09
9861;DHT22;4969;52.304;4.968;2024-02-04T06:37:40;11.20;77.63
9861;DHT22;4969;52.304;4.968;2024-02-04T06:40:09;10.99;77.74
9861;DHT22;4969;52.304;4.968;2024-02-04T06:42:37;10.89;77.94
9861;DHT22;4969;52.304;4.968;2024-02-04T06:45:04;10.85;78.15
9861;DHT22;4969;52.304;4.968;2024-02-04T06:47:31;10.71;79.05
9861;DHT22;4969;52.304;4.968;2024-02-04T06:49:57;10.61;79.75
9861;DHT22;4969;52.304;4.968;2024-02-04T06:52:24;10.78;79.31
9861;DHT22;4969;52.304;4.968;2024-02-04T06:54:50;10.64;80.01
9861;DHT22;4969;52.304;4.968;2024-02-04T06:57:17;10.72;81.40
9861;DHT22;4969;52.304;4.968;2024-02-04T06:59:45;10.97;80.88
9861;DHT22;4969;52.304;4.968;2024-02-04T07:02:11;10.79;80.17
9861;DHT22;4969;52.304;4.968;2024-02-04T07:04:38;10.75;80.67
9861;DHT22;4969;52.304;4.968;2024-02-04T07:07:04;10.86;81.10
9861;DHT22;4969;52.304;4.968;2024-02-04T07:09:31;10.75;81.49
9861;DHT22;4969;52.304;4.968;2024-02-04T07:11:57;10.71;82.24
9861;DHT22;4969;52.304;4.968;2024-02-04T07:14:24;10.67;82.52
9861;DHT22;4969;52.304;4.968;2024-02-04T07:16:52;10.76;83.86
9861;DHT22;4969;52.304;4.968;2024-02-04T07:19:18;10.76;83.35
9861;DHT22;4969;52.304;4.968;2024-02-04T07:21:45;10.48;83.79
9861;DHT22;4969;52.304;4.968;2024-02-04T07:24:11;10.65;84.49
9861;DHT22;4969;52.304;4.968;2024-02-04T07:26:38;10.61;84.62
9861;DHT22;4969;52.304;4.968;2024-02-04T07:29:05;10.69;83.38
9861;DHT22;4969;52.304;4.968;2024-02-04T07:31:31;10.96;83.02
9861;DHT22;4969;52.304;4.968;2024-02-04T07:33:59;11.28;82.48
9861;DHT22;4969;52.304;4.968;2024-02-04T07:36:26;11.02;81.46
9861;DHT22;4969;52.304;4.968;2024-02-04T07:38:52;11.12;82.20
9861;DHT22;4969;52.304;4.968;2024-02-04T07:41:19;11.38;82.04
9861;DHT22;4969;52.304;4.968;2024-02-04T07:43:45;11.07;81.30
9861;DHT22;4969;52.304;4.968;2024-02-04T07:46:13;11.09;82.43
9861;DHT22;4969;52.304;4.968;2024-02-04T07:48:40;11.27;81.94
9861;DHT22;4969;52.304;4.968;2024-02-04T07:51:08;11.00;80.93
9861;DHT22;4969;52.304;4.968;2024-02-04T07:53:35;10.64;82.29
9861;DHT22;4969;52.304;4.968;2024-02-04T07:56:02;10.93;83.00
9861;DHT22;4969;52.304;4.968;2024-02-04T07:58:31;10.74;81.53
9861;DHT22;4969;52.304;4.968;2024-02-04T08:00:58;10.75;81.96
9861;DHT22;4969;52.304;4.968;2024-02-04T08:03:24;10.93;82.28
9861;DHT22;4969;52.304;4.968;2024-02-04T08:05:51;11.13;81.26
9861;DHT22;4969;52.304;4.968;2024-02-04T08:08:19;11.23;80.41
9861;DHT22;4969;52.304;4.968;2024-02-04T08:10:46;11.20;80.12
9861;DHT22;4969;52.304;4.968;2024-02-04T08:13:13;10.85;80.42
9861;DHT22;4969;52.304;4.968;2024-02-04T08:15:40;11.00;80.95
9861;DHT22;4969;52.304;4.968;2024-02-04T08:18:06;10.95;80.07
9861;DHT22;4969;52.304;4.968;2024-02-04T08:20:33;10.93;80.62
9861;DHT22;4969;52.304;4.968;2024-02-04T08:22:59;10.93;81.26
9861;DHT22;4969;52.304;4.968;2024-02-04T08:25:27;10.88;81.91
9861;DHT22;4969;52.304;4.968;2024-02-04T08:27:54;10.88;82.54
9861;DHT22;4969;52.304;4.968;2024-02-04T08:30:20;10.95;81.04
9861;DHT22;4969;52.304;4.968;2024-02-04T08:32:47;10.95;82.06
9861;DHT22;4969;52.304;4.968;2024-02-04T08:35:13;11.26;81.16
9861;DHT22;4969;52.304;4.968;2024-02-04T08:37:40;11.48;80.93
9861;DHT22;4969;52.304;4.968;2024-02-04T08:40:08;11.71;80.40
9861;DHT22;4969;52.304;4.968;2024-02-04T08:42:37;11.54;80.79
9861;DHT22;4969;52.304;4.968;2024-02-04T08:45:04;11.54;79.83
9861;DHT22;4969;52.304;4.968;2024-02-04T08:47:31;11.34;82.71
9861;DHT22;4969;52.304;4.968;2024-02-04T08:49:58;11.28;81.83
9861;DHT22;4969;52.304;4.968;2024-02-04T08:52:24;11.46;81.36
9861;DHT22;4969;52.304;4.968;2024-02-04T08:54:51;11.67;82.74
9861;DHT22;4969;52.304;4.968;2024-02-04T08:57:17;11.50;83.47
9861;DHT22;4969;52.304;4.968;2024-02-04T08:59:45;11.81;81.39
9861;DHT22;4969;52.304;4.968;2024-02-04T09:02:12;11.37;81.90
9861;DHT22;4969;52.304;4.968;2024-02-04T09:04:38;11.87;83.88
9861;DHT22;4969;52.304;4.968;2024-02-04T09:07:06;11.61;81.05
9861;DHT22;4969;52.304;4.968;2024-02-04T09:09:33;11.31;82.11
9861;DHT22;4969;52.304;4.968;2024-02-04T09:11:59;11.74;82.19
9861;DHT22;4969;52.304;4.968;2024-02-04T09:14:26;11.62;81.55
9861;DHT22;4969;52.304;4.968;2024-02-04T09:16:54;11.48;81.77
9861;DHT22;4969;52.304;4.968;2024-02-04T09:19:20;11.40;82.81
9861;DHT22;4969;52.304;4.968;2024-02-04T09:21:47;11.78;82.42
9861;DHT22;4969;52.304;4.968;2024-02-04T09:24:13;12.04;80.61
9861;DHT22;4969;52.304;4.968;2024-02-04T09:26:40;11.90;81.44
9861;DHT22;4969;52.304;4.968;2024-02-04T09:29:06;11.71;81.46
9861;DHT22;4969;52.304;4.968;2024-02-04T09:31:33;12.03;81.59
9861;DHT22;4969;52.304;4.968;2024-02-04T09:34:01;11.92;80.33
9861;DHT22;4969;52.304;4.968;2024-02-04T09:36:28;11.78;81.50
9861;DHT22;4969;52.304;4.968;2024-02-04T09:38:54;12.41;82.63
9861;DHT22;4969;52.304;4.968;2024-02-04T09:41:21;11.87;79.78
9861;DHT22;4969;52.304;4.968;2024-02-04T09:43:50;11.78;80.85
9861;DHT22;4969;52.304;4.968;2024-02-04T09:46:17;12.03;81.09
9861;DHT22;4969;52.304;4.968;2024-02-04T09:48:44;11.86;80.73
9861;DHT22;4969;52.304;4.968;2024-02-04T09:51:13;11.85;81.03
9861;DHT22;4969;52.304;4.968;2024-02-04T09:53:43;12.07;81.25
9861;DHT22;4969;52.304;4.968;2024-02-04T09:56:11;11.78;79.79
9861;DHT22;4969;52.304;4.968;2024-02-04T09:58:38;11.95;80.12
9861;DHT22;4969;52.304;4.968;2024-02-04T10:01:05;11.79;79.47
9861;DHT22;4969;52.304;4.968;2024-02-04T10:03:34;11.90;81.13
9861;DHT22;4969;52.304;4.968;2024-02-04T10:06:00;11.95;81.23
9861;DHT22;4969;52.304;4.968;2024-02-04T10:08:28;11.62;79.70
9861;DHT22;4969;52.304;4.968;2024-02-04T10:10:55;11.76;80.20
9861;DHT22;4969;52.304;4.968;2024-02-04T10:13:23;12.20;80.13
9861;DHT22;4969;52.304;4.968;2024-02-04T10:15:50;11.85;78.82
9861;DHT22;4969;52.304;4.968;2024-02-04T10:18:17;11.71;80.10
9861;DHT22;4969;52.304;4.968;2024-02-04T10:20:44;11.65;80.12
9861;DHT22;4969;52.304;4.968;2024-02-04T10:23:10;11.79;79.23
9861;DHT22;4969;52.304;4.968;2024-02-04T10:25:38;11.72;80.48
9861;DHT22;4969;52.304;4.968;2024-02-04T10:28:05;11.72;81.10
9861;DHT22;4969;52.304;4.968;2024-02-04T10:30:32;11.58;80.52
9861;DHT22;4969;52.304;4.968;2024-02-04T10:32:59;11.54;80.23
9861;DHT22;4969;52.304;4.968;2024-02-04T10:35:26;11.34;80.82
9861;DHT22;4969;52.304;4.968;2024-02-04T10:37:53;11.46;80.57
9861;DHT22;4969;52.304;4.968;2024-02-04T10:40:19;11.59;81.12
9861;DHT22;4969;52.304;4.968;2024-02-04T10:42:49;11.51;80.63
9861;DHT22;4969;52.304;4.968;2024-02-04T10:45:17;11.68;80.52
9861;DHT22;4969;52.304;4.968;2024-02-04T10:47:50;11.55;81.08
9861;DHT22;4969;52.304;4.968;2024-02-04T10:50:19;11.54;81.17
9861;DHT22;4969;52.304;4.968;2024-02-04T10:52:48;11.75;80.49
9861;DHT22;4969;52.304;4.968;2024-02-04T10:55:17;11.92;81.35
9861;DHT22;4969;52.304;4.968;2024-02-04T10:57:50;11.92;82.60
9861;DHT22;4969;52.304;4.968;2024-02-04T11:00:17;11.75;80.26
9861;DHT22;4969;52.304;4.968;2024-02-04T11:02:46;11.64;80.79
9861;DHT22;4969;52.304;4.968;2024-02-04T11:05:15;11.75;81.21
9861;DHT22;4969;52.304;4.968;2024-02-04T11:07:43;11.96;81.06
9861;DHT22;4969;52.304;4.968;2024-02-04T11:10:10;12.02;82.38
9861;DHT22;4969;52.304;4.968;2024-02-04T11:12:38;11.64;82.98
9861;DHT22;4969;52.304;4.968;2024-02-04T11:15:10;11.51;83.26
9861;DHT22;4969;52.304;4.968;2024-02-04T11:20:42;11.69;84.59
9861;DHT22;4969;52.304;4.968;2024-02-04T11:23:27;11.57;83.93
9861;DHT22;4969;52.304;4.968;2024-02-04T11:25:58;11.44;83.97
9861;DHT22;4969;52.304;4.968;2024-02-04T11:28:26;11.48;85.04
9861;DHT22;4969;52.304;4.968;2024-02-04T11:30:54;11.78;83.70
9861;DHT22;4969;52.304;4.968;2024-02-04T11:33:21;11.37;84.53
9861;DHT22;4969;52.304;4.968;2024-02-04T11:35:59;11.17;84.99
9861;DHT22;4969;52.304;4.968;2024-02-04T11:38:29;11.04;85.55
9861;DHT22;4969;52.304;4.968;2024-02-04T11:40:56;11.47;84.87
9861;DHT22;4969;52.304;4.968;2024-02-04T11:43:24;11.48;84.61
9861;DHT22;4969;52.304;4.968;2024-02-04T11:45:52;12.12;84.24
9861;DHT22;4969;52.304;4.968;2024-02-04T11:48:28;12.07;82.98
9861;DHT22;4969;52.304;4.968;2024-02-04T11:50:57;11.67;82.94
9861;DHT22;4969;52.304;4.968;2024-02-04T11:53:24;11.72;84.20
9861;DHT22;4969;52.304;4.968;2024-02-04T11:55:53;11.59;84.26
9861;DHT22;4969;52.304;4.968;2024-02-04T11:58:20;11.75;82.96
9861;DHT22;4969;52.304;4.968;2024-02-04T12:00:47;11.34;84.03
9861;DHT22;4969;52.304;4.968;2024-02-04T12:03:14;11.72;84.70
9861;DHT22;4969;52.304;4.968;2024-02-04T12:05:43;11.27;84.24
9861;DHT22;4969;52.304;4.968;2024-02-04T12:08:11;11.54;85.07
9861;DHT22;4969;52.304;4.968;2024-02-04T12:10:38;11.61;83.81
9861;DHT22;4969;52.304;4.968;2024-02-04T12:13:06;11.68;84.46
9861;DHT22;4969;52.304;4.968;2024-02-04T12:15:34;11.78;84.24
9861;DHT22;4969;52.304;4.968;2024-02-04T12:18:07;11.81;83.26
9861;DHT22;4969;52.304;4.968;2024-02-04T12:20:34;11.47;83.45
9861;DHT22;4969;52.304;4.968;2024-02-04T12:23:03;11.72;83.84
9861;DHT22;4969;52.304;4.968;2024-02-04T12:25:30;11.50;84.38
9861;DHT22;4969;52.304;4.968;2024-02-04T12:27:58;11.64;84.77
9861;DHT22;4969;52.304;4.968;2024-02-04T12:30:24;11.64;83.74
9861;DHT22;4969;52.304;4.968;2024-02-04T12:32:56;11.69;85.30
9861;DHT22;4969;52.304;4.968;2024-02-04T12:35:23;11.57;82.98
9861;DHT22;4969;52.304;4.968;2024-02-04T12:37:50;11.55;85.00
9861;DHT22;4969;52.304;4.968;2024-02-04T12:40:22;11.68;84.44
9861;DHT22;4969;52.304;4.968;2024-02-04T12:42:53;11.67;84.49
9861;DHT22;4969;52.304;4.968;2024-02-04T12:45:20;11.61;83.59
9861;DHT22;4969;52.304;4.968;2024-02-04T12:47:49;11.51;83.56
9861;DHT22;4969;52.304;4.968;2024-02-04T12:50:16;11.78;83.87
9861;DHT22;4969;52.304;4.968;2024-02-04T12:52:44;11.26;83.50
9861;DHT22;4969;52.304;4.968;2024-02-04T12:55:19;11.65;83.50
9861;DHT22;4969;52.304;4.968;2024-02-04T12:57:47;11.85;82.64
9861;DHT22;4969;52.304;4.968;2024-02-04T13:00:17;11.78;82.45
9861;DHT22;4969;52.304;4.968;2024-02-04T13:02:44;11.95;83.60
9861;DHT22;4969;52.304;4.968;2024-02-04T13:05:21;12.17;82.37
9861;DHT22;4969;52.304;4.968;2024-02-04T13:07:51;12.23;83.36
9861;DHT22;4969;52.304;4.968;2024-02-04T13:10:18;11.95;81.95
9861;DHT22;4969;52.304;4.968;2024-02-04T13:12:44;12.26;82.79
9861;DHT22;4969;52.304;4.968;2024-02-04T13:15:13;12.04;82.81
9861;DHT22;4969;52.304;4.968;2024-02-04T13:17:40;11.92;82.35
9861;DHT22;4969;52.304;4.968;2024-02-04T13:20:07;12.17;81.97
9861;DHT22;4969;52.304;4.968;2024-02-04T13:22:34;12.19;82.74
9861;DHT22;4969;52.304;4.968;2024-02-04T13:25:01;12.13;80.97
9861;DHT22;4969;52.304;4.968;2024-02-04T13:27:27;11.86;82.02
9861;DHT22;4969;52.304;4.968;2024-02-04T13:29:54;12.07;81.92
9861;DHT22;4969;52.304;4.968;2024-02-04T13:32:22;12.14;82.29
9861;DHT22;4969;52.304;4.968;2024-02-04T13:34:48;12.47;80.18
9861;DHT22;4969;52.304;4.968;2024-02-04T13:37:16;12.50;83.55
9861;DHT22;4969;52.304;4.968;2024-02-04T13:39:42;12.76;81.11
9861;DHT22;4969;52.304;4.968;2024-02-04T13:42:10;12.31;79.86
9861;DHT22;4969;52.304;4.968;2024-02-04T13:44:36;12.31;81.04
9861;DHT22;4969;52.304;4.968;2024-02-04T13:47:03;12.16;82.69
9861;DHT22;4969;52.304;4.968;2024-02-04T13:49:31;12.20;81.00
9861;DHT22;4969;52.304;4.968;2024-02-04T13:51:57;12.17;81.10
9861;DHT22;4969;52.304;4.968;2024-02-04T13:54:24;12.06;81.47
9861;DHT22;4969;52.304;4.968;2024-02-04T13:56:50;12.07;81.38
9861;DHT22;4969;52.304;4.968;2024-02-04T13:59:17;12.14;81.98
9861;DHT22;4969;52.304;4.968;2024-02-04T14:01:44;12.36;80.03
9861;DHT22;4969;52.304;4.968;2024-02-04T14:04:10;12.36;80.13
9861;DHT22;4969;52.304;4.968;2024-02-04T14:06:38;12.37;80.91
9861;DHT22;4969;52.304;4.968;2024-02-04T14:09:05;12.31;82.17
9861;DHT22;4969;52.304;4.968;2024-02-04T14:11:32;12.27;80.90
9861;DHT22;4969;52.304;4.968;2024-02-04T14:13:58;12.19;80.72
9861;DHT22;4969;52.304;4.968;2024-02-04T14:16:25;11.87;81.96
9861;DHT22;4969;52.304;4.968;2024-02-04T14:18:51;12.13;81.00
9861;DHT22;4969;52.304;4.968;2024-02-04T14:21:18;12.14;83.32
9861;DHT22;4969;52.304;4.968;2024-02-04T14:23:46;11.76;81.63
9861;DHT22;4969;52.304;4.968;2024-02-04T14:26:16;11.83;82.81
9861;DHT22;4969;52.304;4.968;2024-02-04T14:28:42;12.19;82.03
9861;DHT22;4969;52.304;4.968;2024-02-04T14:31:09;11.89;81.71
9861;DHT22;4969;52.304;4.968;2024-02-04T14:33:35;11.87;81.65
9861;DHT22;4969;52.304;4.968;2024-02-04T14:36:02;12.26;81.17
9861;DHT22;4969;52.304;4.968;2024-02-04T14:38:29;12.76;81.86
9861;DHT22;4969;52.304;4.968;2024-02-04T14:40:59;12.51;79.84
9861;DHT22;4969;52.304;4.968;2024-02-04T14:43:25;12.41;80.80
9861;DHT22;4969;52.304;4.968;2024-02-04T14:45:52;12.21;80.94
9861;DHT22;4969;52.304;4.968;2024-02-04T14:48:18;12.30;80.71
9861;DHT22;4969;52.304;4.968;2024-02-04T14:50:45;12.24;80.57
9861;DHT22;4969;52.304;4.968;2024-02-04T14:53:12;12.03;80.92
9861;DHT22;4969;52.304;4.968;2024-02-04T14:55:38;12.30;80.53
9861;DHT22;4969;52.304;4.968;2024-02-04T14:58:06;12.57;79.80
9861;DHT22;4969;52.304;4.968;2024-02-04T15:00:33;12.36;79.87
9861;DHT22;4969;52.304;4.968;2024-02-04T15:02:59;12.68;80.20
9861;DHT22;4969;52.304;4.968;2024-02-04T15:05:26;12.59;79.54
9861;DHT22;4969;52.304;4.968;2024-02-04T15:07:53;12.71;78.75
9861;DHT22;4969;52.304;4.968;2024-02-04T15:10:20;12.83;77.60
9861;DHT22;4969;52.304;4.968;2024-02-04T15:12:47;12.47;79.19
9861;DHT22;4969;52.304;4.968;2024-02-04T15:15:16;12.68;78.62
9861;DHT22;4969;52.304;4.968;2024-02-04T15:17:43;12.24;78.98
9861;DHT22;4969;52.304;4.968;2024-02-04T15:20:11;12.61;80.59
9861;DHT22;4969;52.304;4.968;2024-02-04T15:22:39;12.41;78.74
9861;DHT22;4969;52.304;4.968;2024-02-04T15:25:08;12.23;79.20
9861;DHT22;4969;52.304;4.968;2024-02-04T15:27:36;12.44;79.77
9861;DHT22;4969;52.304;4.968;2024-02-04T15:30:04;12.12;79.56
9861;DHT22;4969;52.304;4.968;2024-02-04T15:32:33;12.34;80.14
9861;DHT22;4969;52.304;4.968;2024-02-04T15:35:00;12.59;80.31
9861;DHT22;4969;52.304;4.968;2024-02-04T15:37:28;12.51;78.41
9861;DHT22;4969;52.304;4.968;2024-02-04T15:39:55;12.54;78.90
9861;DHT22;4969;52.304;4.968;2024-02-04T15:42:22;13.06;78.61
9861;DHT22;4969;52.304;4.968;2024-02-04T15:44:49;12.54;78.37
9861;DHT22;4969;52.304;4.968;2024-02-04T15:47:15;12.47;78.60
9861;DHT22;4969;52.304;4.968;2024-02-04T15:49:44;12.65;78.78
9861;DHT22;4969;52.304;4.968;2024-02-04T15:52:12;12.68;78.70
9861;DHT22;4969;52.304;4.968;2024-02-04T15:54:39;12.47;78.66
9861;DHT22;4969;52.304;4.968;2024-02-04T15:57:07;12.09;79.26
9861;DHT22;4969;52.304;4.968;2024-02-04T15:59:45;12.65;79.91
9861;DHT22;4969;52.304;4.968;2024-02-04T16:02:14;12.26;78.39
9861;DHT22;4969;52.304;4.968;2024-02-04T16:04:41;12.19;79.59
9861;DHT22;4969;52.304;4.968;2024-02-04T16:07:10;12.42;78.21